createdAt,value
2023-11-15T00:01:28.792Z,95549.56
2023-11-15T00:03:55.434Z,95554.94
2023-11-15T00:06:22.190Z,95551.56
2023-11-15T00:08:48.976Z,95551.56
2023-11-15T00:11:20.116Z,95547.94
2023-11-15T00:13:49.403Z,95551.69
2023-11-15T00:16:16.820Z,95558.06
2023-11-15T00:18:43.710Z,95549.78
2023-11-15T00:21:10.304Z,95553.09
2023-11-15T00:23:37.264Z,95549.38
2023-11-15T00:26:05.356Z,95552.69
2023-11-15T00:28:31.988Z,95548.56
2023-11-15T00:30:59.188Z,95567.84
2023-11-15T00:33:25.776Z,95563.25
2023-11-15T00:35:52.579Z,95564.47
2023-11-15T00:38:19.244Z,95568.66
2023-11-15T00:40:45.921Z,95568.13
2023-11-15T00:43:12.769Z,95567.84
2023-11-15T00:45:39.550Z,95578.72
2023-11-15T00:48:06.252Z,95576.16
2023-11-15T00:50:32.928Z,95580.34
2023-11-15T00:52:59.703Z,95580.72
2023-11-15T00:55:26.234Z,95584.75
2023-11-15T00:57:52.812Z,95583.34
2023-11-15T01:00:26.840Z,95590.16
2023-11-15T01:02:58.873Z,95587.84
2023-11-15T01:05:25.957Z,95591.25
2023-11-15T01:07:52.581Z,95599.13
2023-11-15T01:10:20.070Z,95580.28
2023-11-15T01:12:46.723Z,95602.19
2023-11-15T01:15:13.345Z,95604.28
2023-11-15T01:17:40.046Z,95605.81
2023-11-15T01:20:07.187Z,95605.38
2023-11-15T01:22:33.785Z,95603.66
2023-11-15T01:25:00.700Z,95604.78
2023-11-15T01:27:27.224Z,95596.06
2023-11-15T01:29:53.777Z,95607.69
2023-11-15T01:32:20.494Z,95602.06
2023-11-15T01:34:47.052Z,95613.31
2023-11-15T01:37:13.867Z,95620.38
2023-11-15T01:39:40.582Z,95606.56
2023-11-15T01:42:07.118Z,95600.81
2023-11-15T01:44:35.279Z,95600.41
2023-11-15T01:47:02.368Z,95610.19
2023-11-15T01:49:29.080Z,95593.97
2023-11-15T01:51:55.943Z,95586.75
2023-11-15T01:54:24.133Z,95600.41
2023-11-15T01:56:51.177Z,95594.03
2023-11-15T01:59:17.883Z,95607.69
2023-11-15T02:01:44.454Z,95609.53
2023-11-15T02:04:11.184Z,95596.34
2023-11-15T02:06:38.436Z,95626.25
2023-11-15T02:09:06.615Z,95608.91
2023-11-15T02:11:33.284Z,95608.56
2023-11-15T02:14:00.405Z,95614.47
2023-11-15T02:16:27.274Z,95621.63
2023-11-15T02:18:53.856Z,95629.13
2023-11-15T02:21:20.401Z,95627.63
2023-11-15T02:23:47.281Z,95634.38
2023-11-15T02:26:14.072Z,95644.16
2023-11-15T02:28:41.037Z,95635.03
2023-11-15T02:31:07.743Z,95651.72
2023-11-15T02:33:34.410Z,95646.78
2023-11-15T02:36:01.114Z,95663.03
2023-11-15T02:38:27.702Z,95656.25
2023-11-15T02:40:54.395Z,95662.28
2023-11-15T02:43:21.209Z,95680.41
2023-11-15T02:45:48.578Z,95681.50
2023-11-15T02:48:15.286Z,95678.94
2023-11-15T02:50:41.905Z,95685.03
2023-11-15T02:53:08.498Z,95690.25
2023-11-15T02:55:35.025Z,95705.44
2023-11-15T02:58:02.284Z,95711.50
2023-11-15T03:00:30.468Z,95697.22
2023-11-15T03:02:57.515Z,95706.59
2023-11-15T03:05:24.267Z,95722.38
2023-11-15T03:07:51.010Z,95712.94
2023-11-15T03:10:17.520Z,95715.56
2023-11-15T03:12:44.363Z,95696.13
2023-11-15T03:15:11.241Z,95703.34
2023-11-15T03:17:39.122Z,95717.66
2023-11-15T03:20:06.723Z,95712.47
2023-11-15T03:22:33.944Z,95715.47
2023-11-15T03:25:00.441Z,95716.69
2023-11-15T03:27:27.077Z,95726.19
2023-11-15T03:29:53.626Z,95727.81
2023-11-15T03:32:20.273Z,95722.47
2023-11-15T03:34:47.493Z,95727.69
2023-11-15T03:37:15.719Z,95740.59
2023-11-15T03:39:42.245Z,95741.69
2023-11-15T03:42:08.864Z,95733.09
2023-11-15T03:44:35.418Z,95739.91
2023-11-15T03:47:02.026Z,95745.56
2023-11-15T03:49:28.674Z,95751.19
2023-11-15T03:51:55.243Z,95753.78
2023-11-15T03:54:21.944Z,95760.25
2023-11-15T03:56:49.407Z,95732.59
2023-11-15T03:59:15.906Z,95762.19
2023-11-15T04:01:52.264Z,95753.06
2023-11-15T04:04:24.365Z,95762.81
2023-11-15T04:06:51.351Z,95782.03
2023-11-15T04:09:17.980Z,95784.22
2023-11-15T04:11:44.814Z,95788.38
2023-11-15T04:14:11.481Z,95803.06
2023-11-15T04:16:38.053Z,95806.47
2023-11-15T04:19:04.959Z,95817.81
2023-11-15T04:21:31.981Z,95823.09
2023-11-15T04:23:58.620Z,95821.50
2023-11-15T04:26:25.225Z,95819.09
2023-11-15T04:28:51.848Z,95811.66
2023-11-15T04:31:18.703Z,95826.44
2023-11-15T04:33:45.977Z,95827.84
2023-11-15T04:36:12.893Z,95818.69
2023-11-15T04:38:40.007Z,95847.06
2023-11-15T04:41:08.136Z,95840.59
2023-11-15T04:43:34.782Z,95838.59
2023-11-15T04:46:01.514Z,95834.03
2023-11-15T04:48:28.265Z,95850.34
2023-11-15T04:50:55.976Z,95852.19
2023-11-15T04:53:22.605Z,95861.19
2023-11-15T04:55:49.251Z,95860.00
2023-11-15T04:58:16.294Z,95876.19
2023-11-15T05:00:43.869Z,95876.94
2023-11-15T05:03:11.852Z,95874.72
2023-11-15T05:05:40.465Z,95873.88
2023-11-15T05:08:07.042Z,95892.78
2023-11-15T05:10:33.589Z,95895.25
2023-11-15T05:13:00.432Z,95907.41
2023-11-15T05:15:27.176Z,95908.44
2023-11-15T05:17:53.943Z,95899.03
2023-11-15T05:20:21.249Z,95915.19
2023-11-15T05:22:48.065Z,95900.50
2023-11-15T05:25:17.204Z,95906.16
2023-11-15T05:27:44.014Z,95909.84
2023-11-15T05:30:10.841Z,95914.38
2023-11-15T05:32:37.470Z,95900.34
2023-11-15T05:35:04.667Z,95927.16
2023-11-15T05:37:31.197Z,95933.19
2023-11-15T05:39:57.758Z,95926.59
2023-11-15T05:42:24.274Z,95931.03
2023-11-15T05:44:50.854Z,95929.13
2023-11-15T05:47:17.385Z,95931.69
2023-11-15T05:49:43.864Z,95929.81
2023-11-15T05:52:10.380Z,95929.94
2023-11-15T05:54:37.330Z,95944.22
2023-11-15T05:57:06.132Z,95940.69
2023-11-15T05:59:32.719Z,95937.56
2023-11-15T06:01:59.472Z,95945.25
2023-11-15T06:04:26.113Z,95954.50
2023-11-15T06:06:52.654Z,95950.06
2023-11-15T06:09:19.195Z,95948.94
2023-11-15T06:11:45.849Z,95939.22
2023-11-15T06:14:15.943Z,95957.97
2023-11-15T06:16:43.184Z,95957.13
2023-11-15T06:19:10.290Z,95951.72
2023-11-15T06:21:37.541Z,95946.81
2023-11-15T06:24:05.730Z,95956.22
2023-11-15T06:26:37.754Z,95964.47
2023-11-15T06:29:06.437Z,95980.16
2023-11-15T06:31:34.141Z,95966.13
2023-11-15T06:34:00.893Z,95989.91
2023-11-15T06:36:27.602Z,95986.03
2023-11-15T06:38:54.166Z,95998.44
2023-11-15T06:41:20.681Z,95995.06
2023-11-15T06:43:47.420Z,96016.28
2023-11-15T06:46:19.890Z,96019.66
2023-11-15T06:48:48.342Z,96019.31
2023-11-15T06:51:15.045Z,96032.03
2023-11-15T06:53:41.600Z,96029.19
2023-11-15T06:56:08.671Z,96034.56
2023-11-15T06:58:35.985Z,96042.31
2023-11-15T07:01:02.599Z,96047.31
2023-11-15T07:03:29.962Z,96039.66
2023-11-15T07:05:56.652Z,96050.28
2023-11-15T07:08:23.396Z,96060.56
2023-11-15T07:10:50.039Z,96063.34
2023-11-15T07:13:18.197Z,96048.28
2023-11-15T07:15:45.689Z,96064.09
2023-11-15T07:18:13.430Z,96067.31
2023-11-15T07:20:41.278Z,96069.31
2023-11-15T07:23:08.008Z,96072.72
2023-11-15T07:25:35.127Z,96079.38
2023-11-15T07:28:01.773Z,96080.06
2023-11-15T07:30:28.496Z,96085.63
2023-11-15T07:32:56.419Z,96086.09
2023-11-15T07:35:23.157Z,96093.81
2023-11-15T07:37:49.731Z,96084.81
2023-11-15T07:40:16.920Z,96087.16
2023-11-15T07:42:43.647Z,96096.25
2023-11-15T07:45:10.768Z,96094.81
2023-11-15T07:47:37.510Z,96098.28
2023-11-15T07:50:05.380Z,96105.66
2023-11-15T07:52:34.667Z,96099.56
2023-11-15T07:55:02.356Z,96099.84
2023-11-15T07:57:29.062Z,96108.16
2023-11-15T07:59:55.838Z,96107.19
2023-11-15T08:02:24.043Z,96120.78
2023-11-15T08:04:51.744Z,96121.13
2023-11-15T08:07:19.465Z,96117.88
2023-11-15T08:09:48.636Z,96125.84
2023-11-15T08:12:15.758Z,96127.78
2023-11-15T08:14:42.384Z,96137.66
2023-11-15T08:17:09.012Z,96144.16
2023-11-15T08:19:35.581Z,96135.28
2023-11-15T08:22:03.324Z,96140.50
2023-11-15T08:24:30.004Z,96150.00
2023-11-15T08:26:57.298Z,96149.34
2023-11-15T08:29:24.228Z,96160.50
2023-11-15T08:31:51.300Z,96161.69
2023-11-15T08:34:22.468Z,96155.00
2023-11-15T08:36:50.476Z,96162.31
2023-11-15T08:39:18.017Z,96162.66
2023-11-15T08:41:47.204Z,96158.69
2023-11-15T08:44:14.105Z,96163.94
2023-11-15T08:46:46.278Z,96166.22
2023-11-15T08:49:14.116Z,96179.81
2023-11-15T08:51:42.132Z,96185.66
2023-11-15T08:54:09.719Z,96181.47
2023-11-15T08:56:37.255Z,96188.00
2023-11-15T08:59:05.142Z,96199.97
2023-11-15T09:01:31.895Z,96190.38
2023-11-15T09:03:58.773Z,96194.63
2023-11-15T09:06:25.747Z,96183.44
2023-11-15T09:08:52.473Z,96194.31
2023-11-15T09:11:19.174Z,96205.44
2023-11-15T09:13:48.005Z,96215.53
2023-11-15T09:16:15.074Z,96211.91
2023-11-15T09:18:45.292Z,96210.53
2023-11-15T09:21:12.464Z,96208.78
2023-11-15T09:23:42.499Z,96220.66
2023-11-15T09:26:19.534Z,96217.50
2023-11-15T09:28:47.903Z,96229.09
2023-11-15T09:31:14.734Z,96232.91
2023-11-15T09:33:41.479Z,96238.25
2023-11-15T09:36:11.902Z,96226.56
2023-11-15T09:38:40.867Z,96230.31
2023-11-15T09:41:13.215Z,96244.50
2023-11-15T09:43:41.011Z,96240.50
2023-11-15T09:46:13.708Z,96253.06
2023-11-15T09:48:51.069Z,96247.63
2023-11-15T09:51:27.127Z,96256.28
2023-11-15T09:54:04.721Z,96248.75
2023-11-15T09:56:35.453Z,96244.25
2023-11-15T09:59:02.303Z,96250.81
2023-11-15T10:01:28.809Z,96238.56
2023-11-15T10:03:55.487Z,96243.97
2023-11-15T10:06:22.898Z,96236.69
2023-11-15T10:08:54.839Z,96230.34
2023-11-15T10:11:25.565Z,96237.31
2023-11-15T10:14:08.733Z,96239.19
2023-11-15T10:16:35.463Z,96225.25
2023-11-15T10:19:01.951Z,96234.75
2023-11-15T10:21:29.901Z,96230.72
2023-11-15T10:24:12.258Z,96235.81
2023-11-15T10:26:39.893Z,96236.00
2023-11-15T10:29:13.925Z,96229.44
2023-11-15T10:31:54.588Z,96236.28
2023-11-15T10:34:23.950Z,96234.94
2023-11-15T10:37:11.410Z,96238.69
2023-11-15T10:39:48.044Z,96244.38
2023-11-15T10:42:16.968Z,96247.94
2023-11-15T10:44:50.299Z,96244.41
2023-11-15T10:47:21.152Z,96251.56
2023-11-15T10:49:54.698Z,96249.22
2023-11-15T10:52:22.983Z,96239.88
2023-11-15T10:54:51.445Z,96240.06
2023-11-15T10:57:22.293Z,96238.91
2023-11-15T10:59:49.704Z,96247.31
2023-11-15T11:02:18.638Z,96241.44
2023-11-15T11:04:47.528Z,96245.00
2023-11-15T11:07:41.492Z,96243.09
2023-11-15T11:10:13.646Z,96248.16
2023-11-15T11:12:41.551Z,96247.13
2023-11-15T11:15:28.759Z,96245.53
2023-11-15T11:18:13.335Z,96252.41
2023-11-15T11:20:42.269Z,96243.38
2023-11-15T11:23:18.098Z,96253.13
2023-11-15T11:25:48.437Z,96247.00
2023-11-15T11:28:16.760Z,96235.72
2023-11-15T11:30:44.341Z,96243.47
2023-11-15T11:33:15.254Z,96239.88
2023-11-15T11:35:43.234Z,96238.50
2023-11-15T11:38:15.592Z,96243.13
2023-11-15T11:40:43.810Z,96238.00
2023-11-15T11:43:22.805Z,96255.09
2023-11-15T11:45:53.308Z,96263.38
2023-11-15T11:48:39.100Z,96265.97
2023-11-15T11:51:07.204Z,96268.31
2023-11-15T11:53:41.092Z,96271.94
2023-11-15T11:56:09.870Z,96263.25
2023-11-15T11:58:38.315Z,96270.63
2023-11-15T12:01:09.469Z,96270.41
2023-11-15T12:03:39.488Z,96272.63
2023-11-15T12:06:08.721Z,96268.56
2023-11-15T12:08:41.480Z,96266.03
2023-11-15T12:11:09.466Z,96280.50
2023-11-15T12:13:44.157Z,96289.81
2023-11-15T12:16:18.807Z,96289.44
2023-11-15T12:19:03.637Z,96291.31
2023-11-15T12:21:43.833Z,96285.03
2023-11-15T12:24:14.430Z,96279.56
2023-11-15T12:26:48.505Z,96260.09
2023-11-15T12:29:27.905Z,96265.41
2023-11-15T12:31:57.040Z,96266.31
2023-11-15T12:34:25.450Z,96257.69
2023-11-15T12:36:52.882Z,96266.53
2023-11-15T12:39:22.695Z,96265.69
2023-11-15T12:41:51.384Z,96267.75
2023-11-15T12:44:18.078Z,96273.09
2023-11-15T12:46:45.103Z,96272.09
2023-11-15T12:49:15.204Z,96280.47
2023-11-15T12:51:46.595Z,96273.91
2023-11-15T12:54:14.267Z,96276.84
2023-11-15T12:56:41.065Z,96280.28
2023-11-15T12:59:11.880Z,96294.81
2023-11-15T13:01:42.332Z,96290.75
2023-11-15T13:04:09.311Z,96287.59
2023-11-15T13:06:39.549Z,96286.09
2023-11-15T13:09:09.012Z,96288.09
2023-11-15T13:11:36.541Z,96271.25
2023-11-15T13:14:03.198Z,96299.94
2023-11-15T13:16:29.769Z,96296.28
2023-11-15T13:18:56.294Z,96295.63
2023-11-15T13:21:23.405Z,96295.56
2023-11-15T13:23:53.227Z,96289.00
2023-11-15T13:26:20.970Z,96292.63
2023-11-15T13:28:49.162Z,96297.41
2023-11-15T13:31:18.963Z,96292.25
2023-11-15T13:33:49.480Z,96299.94
2023-11-15T13:36:19.253Z,96300.59
2023-11-15T13:38:46.926Z,96307.84
2023-11-15T13:41:16.600Z,96286.00
2023-11-15T13:43:43.200Z,96306.38
2023-11-15T13:46:10.190Z,96306.47
2023-11-15T13:48:37.763Z,96301.13
2023-11-15T13:51:08.238Z,96306.47
2023-11-15T13:53:37.716Z,96304.59
2023-11-15T13:56:06.196Z,96300.44
2023-11-15T13:58:33.049Z,96296.84
2023-11-15T14:01:00.043Z,96302.56
2023-11-15T14:03:27.846Z,96304.09
2023-11-15T14:05:58.928Z,96309.53
2023-11-15T14:08:27.178Z,96310.91
2023-11-15T14:10:53.746Z,96312.91
2023-11-15T14:13:20.313Z,96314.97
2023-11-15T14:15:47.247Z,96304.59
2023-11-15T14:18:16.892Z,96302.63
2023-11-15T14:20:43.630Z,96301.75
2023-11-15T14:23:14.192Z,96297.59
2023-11-15T14:25:40.712Z,96307.28
2023-11-15T14:28:07.253Z,96280.38
2023-11-15T14:30:34.655Z,96312.09
2023-11-15T14:33:01.841Z,96315.75
2023-11-15T14:35:29.663Z,96313.75
2023-11-15T14:37:57.172Z,96325.22
2023-11-15T14:40:24.343Z,96322.59
2023-11-15T14:42:53.141Z,96322.94
2023-11-15T14:45:20.569Z,96315.69
2023-11-15T14:47:47.759Z,96321.31
2023-11-15T14:50:18.622Z,96322.63
2023-11-15T14:52:54.043Z,96332.38
2023-11-15T14:55:21.083Z,96334.69
2023-11-15T14:57:50.241Z,96330.50
2023-11-15T15:00:21.644Z,96334.78
2023-11-15T15:02:49.958Z,96334.94
2023-11-15T15:05:17.740Z,96343.69
2023-11-15T15:07:45.619Z,96341.84
2023-11-15T15:10:19.221Z,96332.25
2023-11-15T15:12:46.250Z,96344.38
2023-11-15T15:15:17.210Z,96341.41
2023-11-15T15:17:44.906Z,96350.50
2023-11-15T15:20:12.145Z,96349.16
2023-11-15T15:22:38.625Z,96362.03
2023-11-15T15:25:06.898Z,96353.00
2023-11-15T15:27:33.451Z,96365.59
2023-11-15T15:30:01.333Z,96377.66
2023-11-15T15:32:28.547Z,96405.56
2023-11-15T15:34:55.744Z,96403.72
2023-11-15T15:37:22.311Z,96416.53
2023-11-15T15:39:51.058Z,96413.25
2023-11-15T15:42:20.445Z,96407.59
2023-11-15T15:44:48.451Z,96401.97
2023-11-15T15:47:15.150Z,96381.06
2023-11-15T15:49:47.673Z,96371.44
2023-11-15T15:52:15.587Z,96380.50
2023-11-15T15:54:43.857Z,96384.78
2023-11-15T15:57:11.170Z,96395.31
2023-11-15T15:59:39.019Z,96391.13
2023-11-15T16:02:06.950Z,96397.72
2023-11-15T16:04:34.656Z,96400.69
2023-11-15T16:07:01.283Z,96389.38
2023-11-15T16:09:28.542Z,96403.44
2023-11-15T16:11:58.242Z,96400.88
2023-11-15T16:14:25.628Z,96402.75
2023-11-15T16:16:52.374Z,96412.63
2023-11-15T16:19:21.592Z,96410.56
2023-11-15T16:21:49.705Z,96401.75
2023-11-15T16:24:18.681Z,96400.47
2023-11-15T16:26:46.471Z,96403.88
2023-11-15T16:29:16.733Z,96391.22
2023-11-15T16:31:48.760Z,96412.41
2023-11-15T16:34:16.103Z,96419.19
2023-11-15T16:36:44.996Z,96427.97
2023-11-15T16:39:11.965Z,96421.31
2023-11-15T16:41:51.479Z,96431.91
2023-11-15T16:44:18.671Z,96431.50
2023-11-15T16:46:47.302Z,96434.31
2023-11-15T16:49:15.417Z,96446.72
2023-11-15T16:51:42.449Z,96439.72
2023-11-15T16:54:09.065Z,96443.78
2023-11-15T16:56:35.731Z,96434.91
2023-11-15T16:59:02.590Z,96441.00
2023-11-15T17:01:36.632Z,96444.63
2023-11-15T17:04:04.664Z,96447.72
2023-11-15T17:06:33.551Z,96456.72
2023-11-15T17:09:02.103Z,96462.75
2023-11-15T17:11:30.943Z,96468.78
2023-11-15T17:13:59.690Z,96471.28
2023-11-15T17:16:29.334Z,96474.69
2023-11-15T17:18:57.172Z,96470.88
2023-11-15T17:21:27.002Z,96482.81
2023-11-15T17:23:54.783Z,96478.66
2023-11-15T17:26:21.480Z,96480.19
2023-11-15T17:28:48.268Z,96474.69
2023-11-15T17:31:14.927Z,96483.78
2023-11-15T17:33:42.798Z,96485.66
2023-11-15T17:36:10.285Z,96484.78
2023-11-15T17:38:36.991Z,96492.22
2023-11-15T17:41:05.028Z,96487.19
2023-11-15T17:43:31.730Z,96500.34
2023-11-15T17:45:58.448Z,96501.75
2023-11-15T17:48:25.158Z,96504.59
2023-11-15T17:50:51.897Z,96492.44
2023-11-15T17:53:19.014Z,96505.81
2023-11-15T17:55:45.834Z,96503.81
2023-11-15T17:58:12.442Z,96512.69
2023-11-15T18:00:39.656Z,96509.81
2023-11-15T18:03:06.675Z,96518.00
2023-11-15T18:05:33.698Z,96520.00
2023-11-15T18:08:00.387Z,96525.81
2023-11-15T18:10:30.008Z,96522.44
2023-11-15T18:12:57.908Z,96523.19
2023-11-15T18:15:24.778Z,96524.66
2023-11-15T18:17:51.973Z,96523.88
2023-11-15T18:20:18.542Z,96528.19
2023-11-15T18:22:46.147Z,96527.84
2023-11-15T18:25:13.421Z,96527.28
2023-11-15T18:27:41.250Z,96527.91
2023-11-15T18:30:14.423Z,96532.63
2023-11-15T18:32:44.356Z,96532.31
2023-11-15T18:35:11.129Z,96526.16
2023-11-15T18:37:37.739Z,96533.28
2023-11-15T18:40:06.264Z,96534.56
2023-11-15T18:42:33.277Z,96537.66
2023-11-15T18:45:00.385Z,96530.94
2023-11-15T18:47:28.082Z,96532.66
2023-11-15T18:49:54.800Z,96524.78
2023-11-15T18:52:21.597Z,96528.72
2023-11-15T18:54:48.168Z,96531.97
2023-11-15T18:57:14.648Z,96530.09
2023-11-15T18:59:41.315Z,96537.56
2023-11-15T19:02:08.817Z,96530.31
2023-11-15T19:04:36.435Z,96538.09
2023-11-15T19:07:04.818Z,96545.44
2023-11-15T19:09:35.696Z,96548.41
2023-11-15T19:12:02.622Z,96543.44
2023-11-15T19:14:34.008Z,96553.19
2023-11-15T19:17:04.746Z,96554.28
2023-11-15T19:19:31.336Z,96564.38
2023-11-15T19:21:57.820Z,96562.03
2023-11-15T19:24:24.657Z,96570.72
2023-11-15T19:26:51.392Z,96567.19
2023-11-15T19:29:18.028Z,96559.19
2023-11-15T19:31:45.299Z,96570.03
2023-11-15T19:34:14.630Z,96576.66
2023-11-15T19:36:41.658Z,96579.19
2023-11-15T19:39:11.627Z,96583.16
2023-11-15T19:41:38.785Z,96579.63
2023-11-15T19:44:08.726Z,96578.34
2023-11-15T19:46:35.243Z,96573.84
2023-11-15T19:49:01.942Z,96571.00
2023-11-15T19:51:37.466Z,96580.38
2023-11-15T19:54:06.744Z,96580.94
2023-11-15T19:56:33.441Z,96581.69
2023-11-15T19:59:00.382Z,96579.97
2023-11-15T20:01:27.079Z,96597.63
2023-11-15T20:03:54.646Z,96601.16
2023-11-15T20:06:21.556Z,96596.22
2023-11-15T20:08:49.297Z,96601.53
2023-11-15T20:11:19.958Z,96596.09
2023-11-15T20:13:46.491Z,96604.22
2023-11-15T20:16:13.066Z,96599.03
2023-11-15T20:18:41.219Z,96596.84
2023-11-15T20:21:09.023Z,96601.97
2023-11-15T20:23:37.849Z,96598.09
2023-11-15T20:26:04.776Z,96598.09
2023-11-15T20:28:38.852Z,96599.50
2023-11-15T20:31:09.555Z,96601.47
2023-11-15T20:33:36.446Z,96598.09
2023-11-15T20:36:03.436Z,96592.91
2023-11-15T20:38:30.016Z,96599.03
2023-11-15T20:40:56.523Z,96604.59
2023-11-15T20:43:22.990Z,96608.66
2023-11-15T20:46:04.344Z,96600.78
2023-11-15T20:48:37.505Z,96599.25
2023-11-15T20:51:04.490Z,96600.13
2023-11-15T20:53:31.165Z,96599.53
2023-11-15T20:55:59.593Z,96616.88
2023-11-15T20:58:27.609Z,96604.31
2023-11-15T21:00:54.595Z,96621.28
2023-11-15T21:03:21.811Z,96623.47
2023-11-15T21:05:48.563Z,96613.88
2023-11-15T21:08:15.113Z,96619.03
2023-11-15T21:10:41.953Z,96619.59
2023-11-15T21:13:09.750Z,96615.75
2023-11-15T21:15:36.303Z,96623.00
2023-11-15T21:18:04.746Z,96625.97
2023-11-15T21:20:41.426Z,96628.38
2023-11-15T21:23:08.447Z,96614.78
2023-11-15T21:25:35.718Z,96635.50
2023-11-15T21:28:02.305Z,96621.78
2023-11-15T21:30:30.757Z,96629.47
2023-11-15T21:32:57.402Z,96632.13
2023-11-15T21:35:23.959Z,96632.44
2023-11-15T21:37:50.490Z,96626.28
2023-11-15T21:40:19.734Z,96626.91
2023-11-15T21:42:50.187Z,96623.09
2023-11-15T21:45:18.293Z,96636.25
2023-11-15T21:47:48.724Z,96629.75
2023-11-15T21:50:16.422Z,96620.19
2023-11-15T21:52:44.541Z,96627.88
2023-11-15T21:55:11.786Z,96631.19
2023-11-15T21:57:38.652Z,96612.41
2023-11-15T22:00:08.055Z,96621.16
2023-11-15T22:02:36.777Z,96611.88
2023-11-15T22:05:04.156Z,96614.88
2023-11-15T22:07:31.040Z,96619.78
2023-11-15T22:09:57.771Z,96622.25
2023-11-15T22:12:24.367Z,96620.78
2023-11-15T22:14:50.940Z,96616.19
2023-11-15T22:17:17.440Z,96616.47
2023-11-15T22:19:43.917Z,96612.31
2023-11-15T22:22:10.587Z,96611.69
2023-11-15T22:24:37.157Z,96615.66
2023-11-15T22:27:03.963Z,96614.13
2023-11-15T22:29:31.239Z,96618.44
2023-11-15T22:31:57.756Z,96615.03
2023-11-15T22:34:24.301Z,96625.22
2023-11-15T22:36:50.828Z,96616.81
2023-11-15T22:39:17.345Z,96614.44
2023-11-15T22:41:43.985Z,96613.78
2023-11-15T22:44:10.585Z,96611.63
2023-11-15T22:46:37.151Z,96612.81
2023-11-15T22:49:03.964Z,96600.22
2023-11-15T22:51:30.572Z,96604.59
2023-11-15T22:53:57.663Z,96605.50
2023-11-15T22:56:24.190Z,96585.75
2023-11-15T22:58:50.642Z,96599.34
2023-11-15T23:01:17.720Z,96583.75
2023-11-15T23:03:44.598Z,96594.56
2023-11-15T23:06:12.857Z,96579.53
2023-11-15T23:08:40.881Z,96582.28
2023-11-15T23:11:11.293Z,96579.66
2023-11-15T23:13:37.976Z,96573.59
2023-11-15T23:16:04.973Z,96570.22
2023-11-15T23:18:31.450Z,96572.53
2023-11-15T23:20:59.239Z,96566.38
2023-11-15T23:23:26.296Z,96562.53
2023-11-15T23:25:52.900Z,96570.22
2023-11-15T23:28:20.167Z,96565.91
2023-11-15T23:30:46.680Z,96561.00
2023-11-15T23:33:14.195Z,96559.31
2023-11-15T23:35:40.770Z,96563.06
2023-11-15T23:38:07.302Z,96556.53
2023-11-15T23:40:33.988Z,96552.03
2023-11-15T23:43:00.669Z,96551.13
2023-11-15T23:45:29.118Z,96553.09
2023-11-15T23:47:56.402Z,96559.03
2023-11-15T23:50:25.876Z,96557.06
2023-11-15T23:52:53.100Z,96559.56
2023-11-15T23:55:20.749Z,96546.16
2023-11-15T23:57:50.140Z,96553.88
